Home > Products > Valid Products > TAF

000
FTUS45 KSLC 242331
TAFSGU
TAF
KSGU 242331Z 2500/2524 VRB05KT P6SM SKC
     FM252100 23011G20KT P6SM SCT110
      AMD LTD TO CLD VIS AND WIND=



000
FTUS45 KSLC 242331
TAFCDC
TAF
KCDC 242331Z 2500/2524 21011KT P6SM SKC
     FM250200 19005KT P6SM SKC
     FM251600 20011G18KT P6SM SKC
     FM251800 22022G33KT P6SM SCT070=



000
FTUS45 KSLC 242331
TAFSLC
TAF
KSLC 242331Z 2500/2606 30008KT P6SM SKC
     FM250200 15010KT P6SM SKC
     FM251500 16012G20KT P6SM SKC
     FM251700 17022G32KT P6SM FEW080
     FM260100 17013G20KT P6SM SCT080=



000
FTUS45 KSLC 242331
TAFOGD
TAF
KOGD 242331Z 2500/2524 17010KT P6SM SKC
     FM251800 19015G25KT P6SM FEW080=



000
FTUS45 KSLC 242331
TAFLGU
TAF
KLGU 242331Z 2500/2524 VRB04KT P6SM SKC
     FM251600 17007KT P6SM SKC
     FM251900 19014G20KT P6SM SCT090=



000
FTUS45 KSLC 242331
TAFBCE
TAF
KBCE 242331Z 2500/2524 15012G19KT P6SM SKC
     FM250200 23005KT P6SM SKC
     FM251700 18013G21KT P6SM SCT080=



000
FTUS45 KSLC 242331
TAFPVU
TAF
KPVU 242331Z 2500/2524 14005KT P6SM SKC
     FM251800 17010KT P6SM SCT080
      AMD LTD TO CLD VIS AND WIND=



000
FTUS45 KSLC 242331
TAFENV
TAF
KENV 242331Z 2500/2524 VRB04KT P6SM SKC
     FM251700 13007KT P6SM SKC
     FM252000 18010G16KT P6SM FEW080
      AMD LTD TO CLD VIS AND WIND=



000
FTUS45 KSLC 242301 AAA
TAFBCE
TAF AMD
KBCE 242301Z 2423/2518 15012G19KT P6SM SKC
     FM250200 23005KT P6SM SKC
     FM251700 18013G21KT P6SM SCT090=



000
FTUS45 KSLC 242050 AAC
TAFSLC
TAF AMD
KSLC 242050Z 2421/2524 18010G15KT P6SM SKC
     FM242200 32008KT P6SM SKC
     FM250200 15010KT P6SM SKC=



000
FTUS45 KSLC 241850 AAB
TAFSLC
TAF AMD
KSLC 241850Z 2419/2524 18011G17KT P6SM SKC
     FM242100 31007KT P6SM SKC
     FM250200 15010KT P6SM SKC=



000
FTUS45 KSLC 241834 AAA
TAFOGD
TAF AMD
KOGD 241834Z 2419/2518 17010KT P6SM SKC=



000
FTUS45 KSLC 241734
TAFBCE
TAF
KBCE 241734Z 2418/2518 13010KT P6SM SKC
     FM241900 17012G19KT P6SM SKC
     FM250200 27007KT P6SM SKC=



000
FTUS45 KSLC 241734
TAFCDC
TAF
KCDC 241734Z 2418/2518 20009KT P6SM SKC
     FM241900 21013G20KT P6SM SKC
     FM250200 20009KT P6SM SKC=



000
FTUS45 KSLC 241734
TAFOGD
TAF
KOGD 241734Z 2418/2518 VRB05KT P6SM SKC
     FM250200 17010KT P6SM SKC=



000
FTUS45 KSLC 241734
TAFENV
TAF
KENV 241734Z 2418/2518 12007KT P6SM SKC
     FM250300 VRB04KT P6SM SKC
     FM251700 12007KT P6SM SKC
      AMD LTD TO CLD VIS AND WIND=



000
FTUS45 KSLC 241734
TAFSGU
TAF
KSGU 241734Z 2418/2518 VRB05KT P6SM SKC
      AMD LTD TO CLD VIS AND WIND=



000
FTUS45 KSLC 241734
TAFPVU
TAF
KPVU 241734Z 2418/2518 14007KT P6SM SKC
      AMD LTD TO CLD VIS AND WIND=



000
FTUS45 KSLC 241734
TAFSLC
TAF
KSLC 241734Z 2418/2524 14004KT P6SM SKC
     FM241900 31007KT P6SM SKC
     FM250200 15010KT P6SM SKC=



000
FTUS45 KSLC 241734
TAFLGU
TAF
KLGU 241734Z 2418/2518 VRB04KT P6SM SKC=



000
FTUS45 KSLC 241530 AAB
TAFSLC
TAF AMD
KSLC 241530Z 2416/2518 14004KT P6SM SKC
     FM241700 16009KT P6SM SKC
     FM242000 31007KT P6SM SKC
     FM250200 15010KT P6SM SKC=



000
FTUS45 KSLC 241424 AAA
TAFSLC
TAF AMD
KSLC 241424Z 2414/2518 16009KT P6SM SKC
     FM241700 18011G18KT P6SM SKC
     FM242100 29008KT P6SM SKC
     FM250200 15010KT P6SM SKC=



000
FTUS45 KSLC 241424 AAA
TAFSLC
TAF AMD
KSLC 241424Z 2414/2518 16009KT P6SM SKC
     FM241700 18011G18KT P6SM SKC
     FM242100 29008KT P6SM SKC
     FM250200 15010KT P6SM SKC=



000
FTUS45 KSLC 241120
TAFSLC
TAF
KSLC 241120Z 2412/2518 16009KT P6SM SCT150 BKN200
     FM241600 18011G18KT P6SM SCT200
     FM242100 29008KT P6SM SCT200=



000
FTUS45 KSLC 241120
TAFOGD
TAF
KOGD 241120Z 2412/2512 VRB05KT P6SM BKN200=



000
FTUS45 KSLC 241120
TAFCDC
TAF
KCDC 241120Z 2412/2512 VRB05KT P6SM SCT200
     FM241800 21013G20KT P6SM SKC
     FM250200 22008KT P6SM SKC=



000
FTUS45 KSLC 241120
TAFBCE
TAF
KBCE 241120Z 2412/2512 VRB05KT P6SM SCT140
     FM241600 14010KT P6SM FEW140
     FM241900 18012G17KT P6SM FEW140
     FM250200 VRB05KT P6SM FEW140=



000
FTUS45 KSLC 241120
TAFLGU
TAF
KLGU 241120Z 2412/2512 VRB04KT P6SM BKN200=



000
FTUS45 KSLC 241120
TAFPVU
TAF
KPVU 241120Z 2412/2512 VRB05KT P6SM FEW120 BKN200
      AMD LTD TO CLD VIS AND WIND=



000
FTUS45 KSLC 241120
TAFSGU
TAF
KSGU 241120Z 2412/2512 VRB05KT P6SM SKC
      AMD LTD TO CLD VIS AND WIND=



000
FTUS45 KSLC 241120
TAFENV
TAF
KENV 241120Z 2412/2512 VRB04KT P6SM OVC200
     FM241600 12007KT P6SM SCT200
     FM250300 VRB04KT P6SM SCT200
      AMD LTD TO CLD VIS AND WIND=



000
FTUS45 KSLC 240905 AAB
TAFSLC
TAF AMD
KSLC 240905Z 2409/2512 16003KT P6SM BKN150
     FM241200 16009KT P6SM SCT150 BKN200
     FM241600 18011G18KT P6SM SCT200
     FM242100 29008KT P6SM SCT200=



000
FTUS45 KSLC 240715 AAA
TAFSLC
TAF AMD
KSLC 240715Z 2407/2512 31005KT P6SM BKN150
     FM240900 16009KT P6SM SCT150 BKN200
     FM241600 18011G18KT P6SM SCT200
     FM242100 29008KT P6SM SCT200=



000
FTUS45 KSLC 240520
TAFENV
TAF
KENV 240520Z 2406/2506 VRB04KT P6SM OVC200
     FM241600 12007KT P6SM SCT200
     FM250300 VRB04KT P6SM SCT200
      AMD LTD TO CLD VIS AND WIND=



000
FTUS45 KSLC 240520
TAFSGU
TAF
KSGU 240520Z 2406/2506 VRB05KT P6SM SKC
      AMD LTD TO CLD VIS AND WIND=



000
FTUS45 KSLC 240520
TAFOGD
TAF
KOGD 240520Z 2406/2506 VRB05KT P6SM BKN200=



000
FTUS45 KSLC 240520
TAFLGU
TAF
KLGU 240520Z 2406/2506 VRB04KT P6SM BKN200=



000
FTUS45 KSLC 240520
TAFCDC
TAF
KCDC 240520Z 2406/2506 VRB05KT P6SM SCT200
     FM241800 21013G20KT P6SM SKC
     FM250200 22008KT P6SM SKC=



000
FTUS45 KSLC 240520
TAFPVU
TAF
KPVU 240520Z 2406/2506 VRB05KT P6SM FEW120 BKN200
      AMD LTD TO CLD VIS AND WIND=



000
FTUS45 KSLC 240520
TAFSLC
TAF
KSLC 240520Z 2406/2512 31005KT P6SM BKN150
     FM240700 16009KT P6SM SCT150 BKN200
     FM241600 18011G18KT P6SM SCT200
     FM242100 29008KT P6SM SCT200=



000
FTUS45 KSLC 240520
TAFBCE
TAF
KBCE 240520Z 2406/2506 VRB05KT P6SM SCT140
     FM241600 14010KT P6SM FEW140
     FM241900 18012G17KT P6SM FEW140
     FM250200 VRB05KT P6SM FEW140=



000
FTUS45 KSLC 240244 AAB
TAFSLC
TAF AMD
KSLC 240244Z 2403/2506 16009KT P6SM FEW150 BKN200
     FM241700 18011G18KT P6SM SCT200
     FM242200 29008KT P6SM SCT200=



000
FTUS45 KSLC 240244 AAB
TAFSLC
TAF AMD
KSLC 240244Z 2403/2506 16009KT P6SM FEW150 BKN200
     FM241700 18011G18KT P6SM SCT200
     FM242200 29008KT P6SM SCT200=



000
FTUS45 KSLC 232330
TAFPVU
TAF
KPVU 232330Z 2400/2424 VRB05KT P6SM FEW120 BKN200
      AMD LTD TO CLD VIS AND WIND=



000
FTUS45 KSLC 232330
TAFCDC
TAF
KCDC 232330Z 2400/2424 21010KT P6SM SCT200
     FM240300 VRB04KT P6SM SCT200
     FM241700 21013G20KT P6SM SKC=



000
FTUS45 KSLC 232330
TAFOGD
TAF
KOGD 232330Z 2400/2424 32006KT P6SM OVC200
     FM240300 17008KT P6SM BKN200=



000
FTUS45 KSLC 232330
TAFENV
TAF
KENV 232330Z 2400/2424 VRB04KT P6SM OVC200
     FM241600 12007KT P6SM SCT200
      AMD LTD TO CLD VIS AND WIND=



000
FTUS45 KSLC 232330
TAFLGU
TAF
KLGU 232330Z 2400/2424 VRB04KT P6SM OVC200=



000
FTUS45 KSLC 232330
TAFSLC
TAF
KSLC 232330Z 2400/2506 30008KT P6SM SCT150 OVC200
     FM240300 15008KT P6SM FEW150 BKN200
     FM241700 18011G18KT P6SM SCT200
     FM242200 29010KT P6SM SCT200=



000
FTUS45 KSLC 232330
TAFBCE
TAF
KBCE 232330Z 2400/2424 13009KT P6SM BKN140
     FM240100 VRB05KT P6SM SCT140
     FM241600 14010KT P6SM FEW140
     FM241900 18012G17KT P6SM FEW140=



000
FTUS45 KSLC 232330
TAFSGU
TAF
KSGU 232330Z 2400/2424 VRB05KT P6SM SKC
      AMD LTD TO CLD VIS AND WIND=



000
FTUS45 KSLC 232101 AAA
TAFCDC
TAF AMD
KCDC 232101Z 2321/2418 22014G21KT P6SM SCT200
     FM240100 21010KT P6SM SCT200
     FM240300 VRB04KT P6SM SKC=



000
FTUS45 KSLC 232101 AAA
TAFBCE
TAF AMD
KBCE 232101Z 2321/2418 13012G18KT P6SM FEW100 SCT200
     FM240000 16009KT P6SM FEW100 SCT200
     FM240300 27007KT P6SM SKC=



000
FTUS45 KSLC 232059 AAA
TAFSLC
TAF AMD
KSLC 232059Z 2321/2424 34008KT P6SM SCT120 BKN200
     FM240300 16008KT P6SM FEW120 SCT200
     FM241700 18011G18KT P6SM SKC=



000
FTUS45 KSLC 231730
TAFENV
TAF
KENV 231730Z 2318/2418 12007KT P6SM SCT120 BKN200
     FM240300 VRB05KT P6SM SCT200
      AMD LTD TO CLD VIS AND WIND=



000
FTUS45 KSLC 231730
TAFLGU
TAF
KLGU 231730Z 2318/2418 VRB04KT P6SM SCT120 BKN200=



000
FTUS45 KSLC 231730
TAFBCE
TAF
KBCE 231730Z 2318/2418 16009KT P6SM FEW100 SCT200
     FM240300 27007KT P6SM SKC=



000
FTUS45 KSLC 231730
TAFCDC
TAF
KCDC 231730Z 2318/2418 22009KT P6SM SCT200
     FM231900 22010G16KT P6SM SCT200
     FM240100 21008KT P6SM SCT200
     FM240300 VRB04KT P6SM SKC=



000
FTUS45 KSLC 231730
TAFPVU
TAF
KPVU 231730Z 2318/2418 VRB05KT P6SM SCT200
      AMD LTD TO CLD VIS AND WIND=



000
FTUS45 KSLC 231730
TAFOGD
TAF
KOGD 231730Z 2318/2418 VRB04KT P6SM BKN200
     FM231900 28007KT P6SM BKN200
     FM240300 17007KT P6SM SCT200=



000
FTUS45 KSLC 231730
TAFSGU
TAF
KSGU 231730Z 2318/2418 VRB05KT P6SM SKC
      AMD LTD TO CLD VIS AND WIND=



000
FTUS45 KSLC 231730
TAFSLC
TAF
KSLC 231730Z 2318/2424 15004KT P6SM SCT150 BKN200
     FM231900 34007KT P6SM SCT120 BKN200
     FM240300 16008KT P6SM FEW120 SCT200
     FM241700 18011G18KT P6SM SKC=



000
FTUS45 KSLC 231459 AAA
TAFSLC
TAF AMD
KSLC 231459Z 2315/2418 15007KT P6SM SCT150 BKN200
     FM232100 33007KT P6SM SCT120 BKN200
     FM240300 16007KT P6SM SCT120 BKN200=



000
FTUS45 KSLC 231459 AAA
TAFSLC
TAF AMD
KSLC 231459Z 2315/2418 15007KT P6SM SCT150 BKN200
     FM232100 33007KT P6SM SCT120 BKN200
     FM240300 16007KT P6SM SCT120 BKN200=



000
FTUS45 KSLC 231120
TAFENV
TAF
KENV 231120Z 2312/2412 VRB05KT P6SM SCT120 SCT200
     FM231700 12007KT P6SM BKN200
     FM240300 VRB05KT P6SM BKN200
      AMD LTD TO CLD VIS AND WIND=



000
FTUS45 KSLC 231120
TAFPVU
TAF
KPVU 231120Z 2312/2412 VRB04KT P6SM SCT200
      AMD LTD TO CLD VIS AND WIND=



000
FTUS45 KSLC 231120
TAFSLC
TAF
KSLC 231120Z 2312/2418 15007KT P6SM BKN200
     FM232000 33007KT P6SM SCT120 BKN200
     FM240300 16007KT P6SM SCT120 BKN200=



000
FTUS45 KSLC 231120
TAFBCE
TAF
KBCE 231120Z 2312/2412 27007KT P6SM SCT200
     FM231500 14007KT P6SM FEW100 SCT200
     FM240300 27007KT P6SM SCT200=



000
FTUS45 KSLC 231120
TAFOGD
TAF
KOGD 231120Z 2312/2412 17007KT P6SM BKN200
     FM232000 22007KT P6SM BKN200
     FM240300 17007KT P6SM BKN200=



000
FTUS45 KSLC 231120
TAFLGU
TAF
KLGU 231120Z 2312/2412 VRB04KT P6SM SCT120 SCT200=



000
FTUS45 KSLC 231120
TAFSGU
TAF
KSGU 231120Z 2312/2412 VRB05KT P6SM SKC
      AMD LTD TO CLD VIS AND WIND=



000
FTUS45 KSLC 231120
TAFCDC
TAF
KCDC 231120Z 2312/2412 VRB03KT P6SM SKC
     FM231800 22010G16KT P6SM SCT200
     FM240300 VRB03KT P6SM SCT200=



000
FTUS45 KSLC 230907 AAA
TAFSLC
TAF AMD
KSLC 230907Z 2309/2412 15007KT P6SM BKN200
     FM232000 33007KT P6SM SCT120 BKN200
     FM240300 16007KT P6SM SCT120 BKN200=



000
FTUS45 KSLC 230524
TAFENV
TAF
KENV 230524Z 2306/2406 VRB05KT P6SM SCT120 SCT200
     FM231700 12007KT P6SM BKN200
     FM240300 VRB05KT P6SM BKN200
      AMD LTD TO CLD VIS AND WIND=



000
FTUS45 KSLC 230524
TAFCDC
TAF
KCDC 230524Z 2306/2406 VRB03KT P6SM SKC
     FM231800 22010G16KT P6SM SCT200
     FM240300 VRB03KT P6SM SCT200=



000
FTUS45 KSLC 230524
TAFSLC
TAF
KSLC 230524Z 2306/2412 15007KT P6SM BKN200
     FM232000 33007KT P6SM SCT120 BKN200
     FM240300 16007KT P6SM SCT120 BKN200=



000
FTUS45 KSLC 230524
TAFPVU
TAF
KPVU 230524Z 2306/2406 VRB04KT P6SM SCT200
      AMD LTD TO CLD VIS AND WIND=



000
FTUS45 KSLC 230524
TAFBCE
TAF
KBCE 230524Z 2306/2406 27007KT P6SM SCT200
     FM231500 14007KT P6SM FEW100 SCT200
     FM240300 27007KT P6SM SCT200=



000
FTUS45 KSLC 230524
TAFLGU
TAF
KLGU 230524Z 2306/2406 VRB04KT P6SM SCT120 SCT200=



000
FTUS45 KSLC 230524
TAFSGU
TAF
KSGU 230524Z 2306/2406 VRB05KT P6SM SKC
      AMD LTD TO CLD VIS AND WIND=



000
FTUS45 KSLC 230524
TAFOGD
TAF
KOGD 230524Z 2306/2406 17007KT P6SM BKN200
     FM232000 22007KT P6SM BKN200=



000
FTUS45 KSLC 230324 AAB
TAFSLC
TAF AMD
KSLC 230324Z 2303/2406 15007KT P6SM BKN200
     FM232000 33007KT P6SM SCT120 BKN200=



000
FTUS45 KSLC 222328
TAFENV
TAF
KENV 222328Z 2300/2324 VRB05KT P6SM SCT200
     FM231700 12007KT P6SM BKN200
      AMD LTD TO CLD VIS AND WIND=



000
FTUS45 KSLC 222328
TAFLGU
TAF
KLGU 222328Z 2300/2324 VRB04KT P6SM SCT200=



000
FTUS45 KSLC 222328
TAFSLC
TAF
KSLC 222328Z 2300/2406 33006KT P6SM FEW120 BKN200
     FM230300 15007KT P6SM BKN200
     FM232000 33007KT P6SM SCT120 BKN200=



000
FTUS45 KSLC 222328
TAFOGD
TAF
KOGD 222328Z 2300/2324 VRB05KT P6SM SCT200
     FM230300 17007KT P6SM BKN200=



000
FTUS45 KSLC 222328
TAFPVU
TAF
KPVU 222328Z 2300/2324 VRB04KT P6SM SCT200
      AMD LTD TO CLD VIS AND WIND=



000
FTUS45 KSLC 222328
TAFBCE
TAF
KBCE 222328Z 2300/2324 VRB04KT P6SM SCT070 SCT200
     FM231500 14007KT P6SM FEW100 SCT200=



000
FTUS45 KSLC 222328
TAFCDC
TAF
KCDC 222328Z 2300/2324 VRB03KT P6SM SKC
     FM231800 22010G16KT P6SM SCT200=



000
FTUS45 KSLC 222328
TAFSGU
TAF
KSGU 222328Z 2300/2324 VRB05KT P6SM SKC
      AMD LTD TO CLD VIS AND WIND=



000
FTUS45 KSLC 222129 AAA
TAFBCE
TAF AMD
KBCE 222129Z 2221/2318 14009KT P6SM FEW100 SCT200
     FM230200 27007KT P6SM FEW100 SCT200=



000
FTUS45 KSLC 222050 AAB
TAFSLC
TAF AMD
KSLC 222050Z 2221/2324 33006KT P6SM FEW120 SCT200
     FM230300 15007KT P6SM FEW120 SCT200
     FM232000 33007KT P6SM SCT120 BKN200=



000
FTUS45 KSLC 221723
TAFENV
TAF
KENV 221723Z 2218/2318 VRB05KT P6SM SCT200
      AMD LTD TO CLD VIS AND WIND=



000
FTUS45 KSLC 221723
TAFLGU
TAF
KLGU 221723Z 2218/2318 VRB04KT P6SM SCT120 SCT200=



000
FTUS45 KSLC 221723
TAFPVU
TAF
KPVU 221723Z 2218/2318 VRB04KT P6SM SCT120
      AMD LTD TO CLD VIS AND WIND=



000
FTUS45 KSLC 221723
TAFOGD
TAF
KOGD 221723Z 2218/2318 VRB05KT P6SM SCT120 SCT200
     FM230300 17007KT P6SM SCT120 BKN200=



000
FTUS45 KSLC 221723
TAFBCE
TAF
KBCE 221723Z 2218/2318 33009KT P6SM FEW100 SCT200
     FM230200 27007KT P6SM FEW100 SCT200=



000
FTUS45 KSLC 221723
TAFCDC
TAF
KCDC 221723Z 2218/2318 VRB05KT P6SM FEW120 SCT200=



000
FTUS45 KSLC 221723
TAFLGU
TAF
KLGU 221723Z 2218/2318 VRB04KT P6SM SCT120 SCT200=



000
FTUS45 KSLC 221723
TAFBCE
TAF
KBCE 221723Z 2218/2318 33009KT P6SM FEW100 SCT200
     FM230200 27007KT P6SM FEW100 SCT200=



000
FTUS45 KSLC 221723
TAFENV
TAF
KENV 221723Z 2218/2318 VRB05KT P6SM SCT200
      AMD LTD TO CLD VIS AND WIND=



000
FTUS45 KSLC 221723
TAFSGU
TAF
KSGU 221723Z 2218/2318 VRB05KT P6SM SCT200
      AMD LTD TO CLD VIS AND WIND=



000
FTUS45 KSLC 221723
TAFSLC
TAF
KSLC 221723Z 2218/2324 33006KT P6SM SCT120 SCT200
     FM230300 15007KT P6SM FEW120 SCT200
     FM232000 33007KT P6SM SCT120 BKN200=



000
FTUS45 KSLC 221723
TAFOGD
TAF
KOGD 221723Z 2218/2318 VRB05KT P6SM SCT120 SCT200
     FM230300 17007KT P6SM SCT120 BKN200=



000
FTUS45 KSLC 221723
TAFPVU
TAF
KPVU 221723Z 2218/2318 VRB04KT P6SM SCT120
      AMD LTD TO CLD VIS AND WIND=



000
FTUS45 KSLC 221723
TAFCDC
TAF
KCDC 221723Z 2218/2318 VRB05KT P6SM FEW120 SCT200=



000
FTUS45 KSLC 221723
TAFSLC
TAF
KSLC 221723Z 2218/2324 33006KT P6SM SCT120 SCT200
     FM230300 15007KT P6SM FEW120 SCT200
     FM232000 33007KT P6SM SCT120 BKN200=



000
FTUS45 KSLC 221723
TAFSGU
TAF
KSGU 221723Z 2218/2318 VRB05KT P6SM SCT200
      AMD LTD TO CLD VIS AND WIND=



000
FTUS45 KSLC 221457 AAA
TAFSLC
TAF AMD
KSLC 221457Z 2215/2318 15006KT P6SM SCT200
     FM221800 33006KT P6SM SCT120 BKN200
     FM230300 16006KT P6SM FEW120 SCT150=



000
FTUS45 KSLC 221120
TAFENV
TAF
KENV 221120Z 2212/2312 VRB04KT P6SM SKC
      AMD LTD TO CLD VIS AND WIND=



000
FTUS45 KSLC 221120
TAFCDC
TAF
KCDC 221120Z 2212/2312 VRB05KT P6SM SCT120=



000
FTUS45 KSLC 221120
TAFSGU
TAF
KSGU 221120Z 2212/2312 VRB04KT P6SM SKC
      AMD LTD TO CLD VIS AND WIND=



000
FTUS45 KSLC 221120
TAFLGU
TAF
KLGU 221120Z 2212/2312 VRB04KT P6SM SCT120=



000
FTUS45 KSLC 221120
TAFOGD
TAF
KOGD 221120Z 2212/2312 VRB04KT P6SM SCT120=



000
FTUS45 KSLC 221120
TAFBCE
TAF
KBCE 221120Z 2212/2312 26007KT P6SM FEW060 SCT150=



000
FTUS45 KSLC 221120
TAFPVU
TAF
KPVU 221120Z 2212/2312 VRB04KT P6SM SCT120
      AMD LTD TO CLD VIS AND WIND=



000
FTUS45 KSLC 221120
TAFSLC
TAF
KSLC 221120Z 2212/2318 15004KT P6SM SKC
     FM221800 34005KT P6SM SCT120
     FM230300 16006KT P6SM FEW120 SCT150=



000
FTUS45 KSLC 220905 AAA
TAFSLC
TAF AMD
KSLC 220905Z 2209/2312 15004KT P6SM SKC
     FM221800 34005KT P6SM SCT120
     FM230300 16006KT P6SM FEW120 SCT150=



000
FTUS45 KSLC 220520
TAFLGU
TAF
KLGU 220520Z 2206/2306 VRB04KT P6SM SCT120=



000
FTUS45 KSLC 220520
TAFOGD
TAF
KOGD 220520Z 2206/2306 VRB05KT P6SM SCT120=



000
FTUS45 KSLC 220520
TAFCDC
TAF
KCDC 220520Z 2206/2306 VRB05KT P6SM SCT120=



000
FTUS45 KSLC 220520
TAFBCE
TAF
KBCE 220520Z 2206/2306 24006KT P6SM FEW060 SCT150=



000
FTUS45 KSLC 220520
TAFPVU
TAF
KPVU 220520Z 2206/2306 VRB04KT P6SM SCT120
      AMD LTD TO CLD VIS AND WIND=



000
FTUS45 KSLC 220520
TAFSGU
TAF
KSGU 220520Z 2206/2306 VRB04KT P6SM SKC
      AMD LTD TO CLD VIS AND WIND=



000
FTUS45 KSLC 220520
TAFSLC
TAF
KSLC 220520Z 2206/2312 35010KT P6SM SCT150
     FM220900 15004KT P6SM SKC
     FM221800 34005KT P6SM SCT120
     FM230300 16006KT P6SM FEW120 SCT150=



000
FTUS45 KSLC 220520
TAFENV
TAF
KENV 220520Z 2206/2306 02009KT P6SM FEW120
     FM220900 VRB04KT P6SM SKC
      AMD LTD TO CLD VIS AND WIND=



000
FTUS45 KSLC 220520
TAFCDC
TAF
KCDC 220520Z 2206/2306 VRB05KT P6SM SCT120=



000
FTUS45 KSLC 220520
TAFBCE
TAF
KBCE 220520Z 2206/2306 24006KT P6SM FEW060 SCT150=



000
FTUS45 KSLC 220520
TAFSGU
TAF
KSGU 220520Z 2206/2306 VRB04KT P6SM SKC
      AMD LTD TO CLD VIS AND WIND=



000
FTUS45 KSLC 220520
TAFLGU
TAF
KLGU 220520Z 2206/2306 VRB04KT P6SM SCT120=



000
FTUS45 KSLC 220520
TAFOGD
TAF
KOGD 220520Z 2206/2306 VRB05KT P6SM SCT120=



000
FTUS45 KSLC 220520
TAFPVU
TAF
KPVU 220520Z 2206/2306 VRB04KT P6SM SCT120
      AMD LTD TO CLD VIS AND WIND=



000
FTUS45 KSLC 220520
TAFSLC
TAF
KSLC 220520Z 2206/2312 35010KT P6SM SCT150
     FM220900 15004KT P6SM SKC
     FM221800 34005KT P6SM SCT120
     FM230300 16006KT P6SM FEW120 SCT150=



000
FTUS45 KSLC 220520
TAFENV
TAF
KENV 220520Z 2206/2306 02009KT P6SM FEW120
     FM220900 VRB04KT P6SM SKC
      AMD LTD TO CLD VIS AND WIND=



000
FTUS45 KSLC 220348 AAB
TAFSLC
TAF AMD
KSLC 220348Z 2204/2306 35010KT P6SM SCT150
     FM220900 15004KT P6SM SKC
     FM221800 34005KT P6SM SCT120
     FM230300 16006KT P6SM FEW120 SCT150=



000
FTUS45 KSLC 220348 AAB
TAFSLC
TAF AMD
KSLC 220348Z 2204/2306 35010KT P6SM SCT150
     FM220900 15004KT P6SM SKC
     FM221800 34005KT P6SM SCT120
     FM230300 16006KT P6SM FEW120 SCT150=



000
FTUS45 KSLC 220156 AAA
TAFENV
TAF AMD
KENV 220156Z 2202/2224 02009KT P6SM FEW120
     FM220600 VRB04KT P6SM SKC
     FM221700 14006KT P6SM SCT150
      AMD LTD TO CLD VIS AND WIND=



000
FTUS45 KSLC 220156 AAA
TAFENV
TAF AMD
KENV 220156Z 2202/2224 02009KT P6SM FEW120
     FM220600 VRB04KT P6SM SKC
     FM221700 14006KT P6SM SCT150
      AMD LTD TO CLD VIS AND WIND=



    US Dept of Commerce
    National Oceanic and Atmospheric Administration
    National Weather Service
    1325 East West Highway
    Silver Spring, MD 20910
    Page Author: NWS Internet Services Team
Disclaimer
Information Quality
Credits
Glossary
Privacy Policy
Freedom of Information Act (FOIA)
About Us
Career Opportunities